createdAt,value
2023-04-09T00:03:31.656Z,101938.50
2023-04-09T00:08:00.664Z,101934.86
2023-04-09T00:12:29.855Z,101942.28
2023-04-09T00:16:58.736Z,101945.30
2023-04-09T00:21:27.794Z,101942.25
2023-04-09T00:25:56.709Z,101937.69
2023-04-09T00:30:25.377Z,101936.22
2023-04-09T00:34:54.310Z,101935.74
2023-04-09T00:39:23.194Z,101933.25
2023-04-09T00:43:52.248Z,101944.14
2023-04-09T00:48:20.916Z,101944.07
2023-04-09T00:52:52.526Z,101945.52
2023-04-09T00:57:21.496Z,101939.37
2023-04-09T01:01:50.911Z,101937.81
2023-04-09T01:06:25.800Z,101934.11
2023-04-09T01:10:57.966Z,101941.24
2023-04-09T01:15:41.517Z,101939.30
2023-04-09T01:20:29.044Z,101944.38
2023-04-09T01:25:03.611Z,101940.00
2023-04-09T01:29:35.887Z,101939.64
2023-04-09T01:34:04.651Z,101935.30
2023-04-09T01:38:34.455Z,101938.42
2023-04-09T01:43:03.632Z,101937.42
2023-04-09T01:47:32.750Z,101944.48
2023-04-09T01:52:01.678Z,101941.23
2023-04-09T01:56:30.854Z,101942.83
2023-04-09T02:06:11.298Z,101943.23
2023-04-09T02:10:40.551Z,101948.83
2023-04-09T02:15:09.815Z,101943.01
2023-04-09T02:19:38.660Z,101943.80
2023-04-09T02:24:07.960Z,101940.52
2023-04-09T02:28:36.919Z,101942.30
2023-04-09T02:33:05.905Z,101941.50
2023-04-09T02:37:35.135Z,101936.20
2023-04-09T02:42:04.020Z,101937.48
2023-04-09T02:46:33.059Z,101933.50
2023-04-09T02:51:02.569Z,101933.04
2023-04-09T02:55:31.568Z,101930.05
2023-04-09T03:00:00.415Z,101931.10
2023-04-09T03:04:29.245Z,101929.58
2023-04-09T03:08:58.008Z,101921.23
2023-04-09T03:13:27.394Z,101914.06
2023-04-09T03:17:56.529Z,101907.09
2023-04-09T03:22:25.337Z,101903.38
2023-04-09T03:27:03.067Z,101901.21
2023-04-09T03:31:31.884Z,101899.25
2023-04-09T03:36:00.879Z,101891.66
2023-04-09T03:40:30.054Z,101889.39
2023-04-09T03:45:03.886Z,101889.20
2023-04-09T03:49:32.938Z,101888.08
2023-04-09T03:54:02.070Z,101894.16
2023-04-09T03:58:31.172Z,101904.34
2023-04-09T04:03:00.370Z,101913.02
2023-04-09T04:07:32.721Z,101914.17
2023-04-09T04:12:04.162Z,101916.48
2023-04-09T04:16:42.871Z,101913.11
2023-04-09T04:21:11.766Z,101913.73
2023-04-09T04:25:41.219Z,101909.39
2023-04-09T04:30:10.286Z,101910.73
2023-04-09T04:34:39.956Z,101921.32
2023-04-09T04:39:09.285Z,101919.85
2023-04-09T04:43:39.054Z,101914.88
2023-04-09T04:48:08.313Z,101914.16
2023-04-09T04:52:37.362Z,101907.17
2023-04-09T04:57:06.737Z,101903.69
2023-04-09T05:01:35.967Z,101912.89
2023-04-09T05:06:04.794Z,101913.16
2023-04-09T05:10:33.375Z,101916.42
2023-04-09T05:15:02.801Z,101914.09
2023-04-09T05:19:31.648Z,101914.25
2023-04-09T05:24:00.676Z,101917.81
2023-04-09T05:28:29.859Z,101918.80
2023-04-09T05:33:00.191Z,101924.68
2023-04-09T05:37:30.529Z,101930.85
2023-04-09T05:41:59.833Z,101932.61
2023-04-09T05:46:43.761Z,101934.95
2023-04-09T05:51:15.928Z,101929.44
2023-04-09T05:55:44.944Z,101931.23
2023-04-09T06:00:14.221Z,101940.13
2023-04-09T06:04:43.370Z,101937.80
2023-04-09T06:09:12.406Z,101939.14
2023-04-09T06:13:41.806Z,101936.77
2023-04-09T06:18:11.201Z,101932.05
2023-04-09T06:22:40.605Z,101930.67
2023-04-09T06:28:45.834Z,101937.81
2023-04-09T06:31:40.695Z,101942.20
2023-04-09T06:36:10.044Z,101938.12
2023-04-09T06:46:24.598Z,101937.41
2023-04-09T06:50:04.879Z,101938.33
2023-04-09T06:53:46.596Z,101940.70
2023-04-09T06:57:25.962Z,101937.15
2023-04-09T07:01:07.511Z,101933.50
2023-04-09T07:04:33.987Z,101936.50
2023-04-09T07:08:14.051Z,101947.20
2023-04-09T07:11:52.801Z,101959.62
2023-04-09T07:15:17.281Z,101963.55
2023-04-09T07:18:59.130Z,101965.17
2023-04-09T07:22:47.977Z,101965.15
2023-04-09T07:26:36.917Z,101967.52
2023-04-09T07:29:59.682Z,101973.38
2023-04-09T07:33:38.449Z,101972.13
2023-04-09T07:37:27.425Z,101967.48
2023-04-09T07:40:59.150Z,101970.29
2023-04-09T07:44:41.135Z,101975.65
2023-04-09T07:48:30.482Z,101973.10
2023-04-09T07:52:12.038Z,101976.48
2023-04-09T07:55:50.205Z,101977.59
2023-04-09T07:59:39.188Z,101982.77
2023-04-09T08:03:20.261Z,101982.45
2023-04-09T08:06:53.909Z,101983.30
2023-04-09T08:10:43.159Z,101988.06
2023-04-09T08:14:36.085Z,101989.48
2023-04-09T08:18:07.370Z,101985.75
2023-04-09T08:21:56.598Z,101986.09
2023-04-09T08:25:35.656Z,101984.18
2023-04-09T08:29:25.155Z,101982.69
2023-04-09T08:33:14.724Z,101975.96
2023-04-09T08:37:04.001Z,101975.94
2023-04-09T08:41:44.683Z,101972.54
2023-04-09T08:44:44.236Z,101976.44
2023-04-09T08:48:12.174Z,101974.69
2023-04-09T08:51:55.284Z,101974.52
2023-04-09T08:55:45.566Z,101967.11
2023-04-09T08:59:35.862Z,101968.15
2023-04-09T09:03:35.314Z,101963.63
2023-04-09T09:07:09.612Z,101967.33
2023-04-09T09:10:59.306Z,101967.47
2023-04-09T09:14:48.817Z,101969.94
2023-04-09T09:18:37.281Z,101968.59
2023-04-09T09:22:26.925Z,101960.52
2023-04-09T09:26:18.470Z,101967.21
2023-04-09T09:30:01.685Z,101970.45
2023-04-09T09:33:53.692Z,101968.52
2023-04-09T09:37:35.541Z,101965.30
2023-04-09T09:41:10.327Z,101968.65
2023-04-09T09:45:10.910Z,101970.92
2023-04-09T09:48:41.966Z,101971.17
2023-04-09T09:52:30.876Z,101969.23
2023-04-09T09:56:13.567Z,101964.46
2023-04-09T10:00:11.478Z,101962.27
2023-04-09T10:04:06.117Z,101963.96
2023-04-09T10:07:54.083Z,101961.70
2023-04-09T10:11:42.804Z,101956.60
2023-04-09T10:15:31.901Z,101959.48
2023-04-09T10:19:13.871Z,101947.20
2023-04-09T10:22:52.189Z,101947.54
2023-04-09T10:26:22.770Z,101947.63
2023-04-09T10:30:07.650Z,101951.23
2023-04-09T10:33:56.626Z,101945.96
2023-04-09T10:37:45.559Z,101946.82
2023-04-09T10:41:22.572Z,101948.05
2023-04-09T10:45:22.277Z,101947.05
2023-04-09T10:48:59.364Z,101947.73
2023-04-09T10:53:02.302Z,101941.48
2023-04-09T10:56:54.839Z,101940.56
2023-04-09T11:00:36.639Z,101936.77
2023-04-09T11:04:11.524Z,101935.12
2023-04-09T11:08:00.478Z,101933.08
2023-04-09T11:11:42.878Z,101933.41
2023-04-09T11:15:17.211Z,101933.20
2023-04-09T11:18:56.141Z,101931.90
2023-04-09T11:22:39.121Z,101929.91
2023-04-09T11:26:31.117Z,101924.89
2023-04-09T11:30:09.047Z,101927.34
2023-04-09T11:33:51.042Z,101928.09
2023-04-09T11:37:36.302Z,101927.48
2023-04-09T11:41:27.212Z,101921.33
2023-04-09T11:45:16.751Z,101912.89
2023-04-09T11:48:44.733Z,101914.48
2023-04-09T11:52:32.784Z,101911.33
2023-04-09T11:56:25.055Z,101914.17
2023-04-09T12:00:14.303Z,101922.90
2023-04-09T12:04:00.829Z,101920.76
2023-04-09T12:07:56.385Z,101926.05
2023-04-09T12:11:39.123Z,101926.24
2023-04-09T12:15:18.951Z,101928.01
2023-04-09T12:18:56.078Z,101922.75
2023-04-09T12:22:48.282Z,101924.86
2023-04-09T12:26:12.252Z,101922.58
2023-04-09T12:30:02.255Z,101922.45
2023-04-09T12:33:52.035Z,101916.46
2023-04-09T12:37:33.174Z,101920.59
2023-04-09T12:41:23.272Z,101917.34
2023-04-09T12:45:14.342Z,101915.65
2023-04-09T12:49:04.275Z,101917.98
2023-04-09T12:52:53.127Z,101916.96
2023-04-09T12:56:37.092Z,101915.66
2023-04-09T13:00:26.282Z,101918.84
2023-04-09T13:04:14.506Z,101913.30
2023-04-09T13:07:46.778Z,101909.44
2023-04-09T13:11:21.960Z,101909.61
2023-04-09T13:15:03.995Z,101908.46
2023-04-09T13:18:54.096Z,101907.30
2023-04-09T13:22:43.496Z,101908.30
2023-04-09T13:26:25.378Z,101908.79
2023-04-09T13:30:13.339Z,101907.58
2023-04-09T13:34:02.668Z,101910.91
2023-04-09T13:37:51.941Z,101913.13
2023-04-09T13:41:21.348Z,101907.45
2023-04-09T13:45:10.611Z,101905.96
2023-04-09T13:48:59.904Z,101905.23
2023-04-09T13:52:34.818Z,101897.86
2023-04-09T13:56:14.248Z,101894.92
2023-04-09T14:00:04.213Z,101896.17
2023-04-09T14:03:53.533Z,101895.56
2023-04-09T14:07:43.276Z,101893.77
2023-04-09T14:11:32.700Z,101889.55
2023-04-09T14:15:21.972Z,101886.85
2023-04-09T14:19:10.883Z,101885.13
2023-04-09T14:23:00.416Z,101885.48
2023-04-09T14:26:49.871Z,101887.83
2023-04-09T14:30:16.116Z,101891.42
2023-04-09T14:34:05.181Z,101887.38
2023-04-09T14:37:54.475Z,101879.84
2023-04-09T14:41:44.153Z,101876.09
2023-04-09T14:45:35.537Z,101884.87
2023-04-09T14:49:25.139Z,101875.88
2023-04-09T14:53:14.828Z,101876.07
2023-04-09T14:57:04.514Z,101873.45
2023-04-09T15:00:54.298Z,101868.58
2023-04-09T15:04:32.891Z,101864.83
2023-04-09T15:08:22.227Z,101863.58
2023-04-09T15:12:11.584Z,101861.30
2023-04-09T15:15:43.802Z,101861.35
2023-04-09T15:19:32.836Z,101864.52
2023-04-09T15:23:22.394Z,101861.95
2023-04-09T15:27:11.830Z,101855.77
2023-04-09T15:31:01.674Z,101860.67
2023-04-09T15:34:51.094Z,101862.31
2023-04-09T15:38:43.442Z,101865.20
2023-04-09T15:42:32.938Z,101859.98
2023-04-09T15:46:21.730Z,101858.47
2023-04-09T15:50:02.351Z,101860.80
2023-04-09T15:53:42.539Z,101863.98
2023-04-09T15:57:53.351Z,101863.00
2023-04-09T16:01:42.263Z,101863.23
2023-04-09T16:05:31.604Z,101863.61
2023-04-09T16:09:21.587Z,101864.31
2023-04-09T16:13:05.023Z,101865.80
2023-04-09T16:16:54.022Z,101868.87
2023-04-09T16:20:43.445Z,101869.19
2023-04-09T16:24:32.804Z,101869.46
2023-04-09T16:28:26.785Z,101870.88
2023-04-09T16:32:16.013Z,101868.73
2023-04-09T16:36:04.975Z,101865.95
2023-04-09T16:39:54.012Z,101863.33
2023-04-09T16:43:43.278Z,101862.55
2023-04-09T16:47:33.078Z,101861.21
2023-04-09T16:51:22.054Z,101862.01
2023-04-09T16:55:11.175Z,101864.93
2023-04-09T16:59:00.449Z,101869.98
2023-04-09T17:02:49.738Z,101870.20
2023-04-09T17:06:37.818Z,101875.98
2023-04-09T17:10:28.219Z,101875.95
2023-04-09T17:14:17.649Z,101873.95
2023-04-09T17:18:06.397Z,101873.41
2023-04-09T17:21:58.939Z,101875.08
2023-04-09T17:29:52.349Z,101869.98
2023-04-09T17:34:01.179Z,101875.94
2023-04-09T17:38:29.367Z,101877.45
2023-04-09T17:42:37.807Z,101882.73
2023-04-09T17:47:06.338Z,101885.06
2023-04-09T17:51:15.167Z,101888.42
2023-04-09T17:55:46.033Z,101894.65
2023-04-09T17:59:56.090Z,101895.86
2023-04-09T18:04:06.686Z,101896.38
2023-04-09T18:08:37.834Z,101898.67
2023-04-09T18:12:52.405Z,101902.95
2023-04-09T18:17:01.241Z,101898.94
2023-04-09T18:21:10.316Z,101907.66
2023-04-09T18:25:39.851Z,101910.30
2023-04-09T18:29:41.682Z,101914.19
2023-04-09T18:34:09.927Z,101926.40
2023-04-09T18:38:28.234Z,101928.50
2023-04-09T18:42:49.458Z,101926.04
2023-04-09T18:47:18.780Z,101933.31
2023-04-09T18:51:46.987Z,101940.52
2023-04-09T18:56:18.135Z,101945.39
2023-04-09T19:00:56.726Z,101946.57
2023-04-09T19:05:14.373Z,101951.66
2023-04-09T19:09:44.056Z,101952.48
2023-04-09T19:14:16.110Z,101954.58
2023-04-09T19:18:25.443Z,101957.73
2023-04-09T19:22:27.437Z,101961.58
2023-04-09T19:27:04.562Z,101958.25
2023-04-09T19:31:27.571Z,101961.17
2023-04-09T19:35:57.196Z,101959.30
2023-04-09T19:40:25.842Z,101965.14
2023-04-09T19:44:53.572Z,101971.39
2023-04-09T19:49:22.970Z,101975.55
2023-04-09T19:53:33.023Z,101974.86
2023-04-09T19:58:04.498Z,101978.43
2023-04-09T20:02:14.318Z,101979.86
2023-04-09T20:06:47.790Z,101982.14
2023-04-09T20:11:20.603Z,101985.70
2023-04-09T20:15:50.018Z,101987.74
2023-04-09T20:20:19.020Z,101988.70
2023-04-09T20:24:48.538Z,101990.53
2023-04-09T20:28:59.092Z,101993.77
2023-04-09T20:33:10.805Z,101992.86
2023-04-09T20:37:21.694Z,101992.89
2023-04-09T20:41:50.412Z,101993.23
2023-04-09T20:46:07.807Z,101988.85
2023-04-09T20:50:37.305Z,101989.62
2023-04-09T20:54:47.023Z,101984.83
2023-04-09T20:59:18.520Z,101983.97
2023-04-09T21:03:52.930Z,101990.63
2023-04-09T21:08:20.872Z,101993.94
2023-04-09T21:12:51.324Z,101992.29
2023-04-09T21:17:17.866Z,101987.34
2023-04-09T21:21:05.674Z,101982.91
2023-04-09T21:24:53.957Z,101984.16
2023-04-09T21:28:42.466Z,101983.23
2023-04-09T21:32:30.627Z,101980.97
2023-04-09T21:36:09.115Z,101984.77
2023-04-09T21:39:31.847Z,101988.70
2023-04-09T21:43:13.751Z,101984.89
2023-04-09T21:46:22.337Z,101991.09
2023-04-09T21:49:40.923Z,101988.94
2023-04-09T21:53:27.214Z,101989.95
2023-04-09T21:56:54.761Z,101987.16
2023-04-09T22:00:32.306Z,101989.72
2023-04-09T22:03:26.263Z,101997.59
2023-04-09T22:06:47.299Z,101994.25
2023-04-09T22:10:33.583Z,101985.28
2023-04-09T22:14:21.252Z,101991.55
2023-04-09T22:18:08.916Z,101993.64
2023-04-09T22:21:47.288Z,101996.73
2023-04-09T22:25:34.922Z,101994.22
2023-04-09T22:28:34.926Z,101995.19
2023-04-09T22:31:58.056Z,101990.42
2023-04-09T22:35:18.893Z,101994.13
2023-04-09T22:39:06.743Z,101988.14
2023-04-09T22:42:34.739Z,101989.48
2023-04-09T22:46:20.277Z,101989.21
2023-04-09T22:49:57.827Z,101990.13
2023-04-09T22:53:20.699Z,101984.80
2023-04-09T22:56:38.965Z,101993.64
2023-04-09T23:00:09.220Z,101997.06
2023-04-09T23:03:39.922Z,101994.66
2023-04-09T23:07:12.342Z,101995.73
2023-04-09T23:10:45.258Z,101995.92
2023-04-09T23:13:52.558Z,101991.26
2023-04-09T23:17:31.283Z,101992.27
2023-04-09T23:21:11.686Z,101991.76
2023-04-09T23:24:59.795Z,101989.05
2023-04-09T23:28:47.288Z,101988.64
2023-04-09T23:32:14.541Z,101984.65
2023-04-09T23:36:01.988Z,101983.77
2023-04-09T23:39:49.459Z,101986.14
2023-04-09T23:43:25.827Z,101985.48
2023-04-09T23:46:45.980Z,101981.06
2023-04-09T23:50:13.325Z,101979.73
2023-04-09T23:54:01.859Z,101979.45
2023-04-09T23:57:16.318Z,101978.67
